Time;durP1;ratioP1;P1;durP2;ratioP2;P2;SDS_P1;SDS_P2;PMS_P1;PMS_P2;Temp;Humidity;BMP_temperature;BMP_pressure;BME280_temperature;BME280_humidity;BME280_pressure;Samples;Min_cycle;Max_cycle;Signal;HPM_P1;HPM_P2
2021/11/23 05:49:15;;;;;;;55.75;30.55;;;;;;;;;;4983988;23;20347;-62
2021/11/23 05:51:41;;;;;;;59.67;31.90;;;;;;;;;;4916741;29;20032;-62
2021/11/23 05:54:07;;;;;;;61.50;31.23;;;;;;;;;;4917132;29;20033;-62
2021/11/23 05:56:33;;;;;;;54.60;29.05;;;;;;;;;;4899812;29;20551;-64
2021/11/23 05:58:59;;;;;;;57.65;28.30;;;;;;;;;;4917021;29;20028;-61
2021/11/23 06:01:25;;;;;;;56.22;29.27;;;;;;;;;;4916789;29;20035;-61
2021/11/23 06:03:52;;;;;;;54.50;29.23;;;;;;;;;;4917059;29;20032;-62
2021/11/23 06:06:18;;;;;;;59.63;31.05;;;;;;;;;;4916830;29;20071;-61
2021/11/23 06:08:44;;;;;;;52.42;27.30;;;;;;;;;;4916883;29;20083;-61
2021/11/23 06:11:10;;;;;;;56.22;29.67;;;;;;;;;;4898970;29;20514;-61
2021/11/23 06:13:37;;;;;;;58.38;31.35;;;;;;;;;;4915863;29;20051;-63
2021/11/23 06:16:05;;;;;;;57.88;29.67;;;;;;;;;;4898813;29;20614;-61
2021/11/23 06:18:31;;;;;;;47.28;22.95;;;;;;;;;;4916756;29;20027;-61
2021/11/23 06:20:57;;;;;;;46.10;26.27;;;;;;;;;;4916566;29;20032;-65
2021/11/23 06:23:24;;;;;;;52.47;26.05;;;;;;;;;;4899026;29;20467;-60
2021/11/23 06:25:52;;;;;;;43.22;21.73;;;;;;;;;;4916711;29;20064;-61
2021/11/23 06:28:19;;;;;;;48.70;24.60;;;;;;;;;;4916644;29;20024;-61
2021/11/23 06:30:45;;;;;;;55.40;27.05;;;;;;;;;;4916731;29;20024;-61
2021/11/23 06:33:11;;;;;;;59.40;31.83;;;;;;;;;;4916133;29;20036;-62
2021/11/23 06:35:37;;;;;;;55.00;29.02;;;;;;;;;;4916490;29;20115;-61
2021/11/23 06:38:04;;;;;;;56.17;30.20;;;;;;;;;;4916367;29;20079;-60
2021/11/23 06:40:31;;;;;;;54.60;29.13;;;;;;;;;;4906738;29;20056;-70
2021/11/23 06:42:57;;;;;;;43.58;22.52;;;;;;;;;;4897038;29;20052;-61
2021/11/23 06:45:23;;;;;;;51.83;26.08;;;;;;;;;;4896893;29;20036;-58
2021/11/23 06:47:50;;;;;;;49.90;27.42;;;;;;;;;;4881047;29;20040;-63
2021/11/23 06:50:17;;;;;;;51.75;26.65;;;;;;;;;;4897570;29;20048;-63
2021/11/23 06:52:43;;;;;;;51.97;27.58;;;;;;;;;;4897422;29;20481;-63
2021/11/23 06:55:09;;;;;;;50.83;26.10;;;;;;;;;;4897182;29;20036;-65
2021/11/23 06:57:35;;;;;;;48.13;24.52;;;;;;;;;;4896739;29;20473;-63
2021/11/23 07:00:03;;;;;;;43.70;23.15;;;;;;;;;;4896634;29;20036;-62
2021/11/23 07:02:29;;;;;;;46.25;23.42;;;;;;;;;;4896305;29;20111;-62
2021/11/23 07:04:55;;;;;;;40.25;21.00;;;;;;;;;;4896840;29;20028;-61
2021/11/23 07:07:21;;;;;;;36.63;20.00;;;;;;;;;;4896718;29;20040;-60
2021/11/23 07:09:47;;;;;;;39.05;21.48;;;;;;;;;;4896621;29;20060;-62
2021/11/23 07:12:13;;;;;;;43.03;22.88;;;;;;;;;;4896164;29;20063;-60
2021/11/23 07:14:40;;;;;;;41.58;21.25;;;;;;;;;;4896812;29;20037;-64
2021/11/23 07:17:06;;;;;;;34.22;17.67;;;;;;;;;;4896381;29;20035;-64
2021/11/23 07:19:32;;;;;;;35.22;18.27;;;;;;;;;;4896772;29;20028;-63
2021/11/23 07:21:58;;;;;;;36.10;17.77;;;;;;;;;;4896501;29;20051;-63
2021/11/23 07:24:24;;;;;;;38.70;19.00;;;;;;;;;;4896429;29;20032;-62
2021/11/23 07:26:50;;;;;;;38.70;20.45;;;;;;;;;;4895321;29;20108;-63
2021/11/23 07:29:16;;;;;;;37.10;20.63;;;;;;;;;;4895394;29;20477;-61
2021/11/23 07:31:43;;;;;;;37.97;19.80;;;;;;;;;;4895178;29;20079;-61
2021/11/23 07:34:09;;;;;;;38.75;20.90;;;;;;;;;;4895026;29;20032;-62
2021/11/23 07:36:38;;;;;;;31.17;16.58;;;;;;;;;;4895125;29;20477;-62
2021/11/23 07:39:05;;;;;;;38.97;18.92;;;;;;;;;;4895098;29;20027;-61
2021/11/23 07:41:31;;;;;;;38.53;21.23;;;;;;;;;;4896188;29;20052;-60
2021/11/23 07:43:58;;;;;;;36.47;20.40;;;;;;;;;;4894942;29;20036;-61
2021/11/23 07:46:25;;;;;;;32.45;17.90;;;;;;;;;;4894145;29;20511;-61
2021/11/23 07:48:52;;;;;;;37.70;22.30;;;;;;;;;;4895755;29;20072;-63
2021/11/23 07:51:18;;;;;;;54.15;33.42;;;;;;;;;;4896181;29;20397;-62
2021/11/23 07:53:44;;;;;;;29.38;14.85;;;;;;;;;;4896086;29;20445;-61
2021/11/23 07:56:11;;;;;;;30.52;17.42;;;;;;;;;;4896190;29;20029;-61
2021/11/23 07:58:37;;;;;;;36.97;20.60;;;;;;;;;;4896001;29;20088;-61
2021/11/23 08:01:04;;;;;;;39.38;21.30;;;;;;;;;;4895844;29;20035;-61
2021/11/23 08:03:30;;;;;;;33.22;18.10;;;;;;;;;;4878910;29;20049;-62
2021/11/23 08:05:56;;;;;;;33.53;19.55;;;;;;;;;;4895194;29;20033;-61
2021/11/23 08:08:22;;;;;;;34.28;19.85;;;;;;;;;;4895693;29;20131;-62
2021/11/23 08:10:48;;;;;;;33.45;18.23;;;;;;;;;;4895716;29;20516;-61
2021/11/23 08:13:15;;;;;;;34.60;19.00;;;;;;;;;;4892962;29;20033;-62
2021/11/23 08:15:42;;;;;;;32.83;17.55;;;;;;;;;;4894385;29;20024;-61
2021/11/23 08:18:09;;;;;;;28.33;16.48;;;;;;;;;;4894098;29;20023;-59
2021/11/23 08:20:35;;;;;;;30.27;17.15;;;;;;;;;;4891419;29;20040;-62
2021/11/23 08:23:02;;;;;;;38.88;21.08;;;;;;;;;;4895299;29;20051;-61
2021/11/23 08:25:28;;;;;;;46.05;24.92;;;;;;;;;;4898661;29;20067;-62
2021/11/23 08:27:54;;;;;;;73.78;44.42;;;;;;;;;;4899836;29;20036;-62
2021/11/23 08:30:21;;;;;;;26.15;16.05;;;;;;;;;;4898941;29;20024;-61
2021/11/23 08:32:47;;;;;;;27.13;16.17;;;;;;;;;;4898029;29;20033;-60
2021/11/23 08:35:14;;;;;;;25.35;14.90;;;;;;;;;;4898313;29;20029;-64
2021/11/23 08:37:40;;;;;;;26.13;14.18;;;;;;;;;;4897982;29;20033;-64
2021/11/23 08:40:07;;;;;;;27.02;15.00;;;;;;;;;;4898135;29;20051;-62
2021/11/23 08:42:34;;;;;;;26.08;15.85;;;;;;;;;;4897903;29;20028;-62
2021/11/23 08:45:00;;;;;;;32.05;16.98;;;;;;;;;;4898445;29;20032;-61
2021/11/23 08:47:26;;;;;;;30.15;17.10;;;;;;;;;;4897440;29;20032;-66
2021/11/23 08:49:53;;;;;;;30.60;15.43;;;;;;;;;;4897691;29;20033;-62
2021/11/23 08:52:19;;;;;;;26.83;15.40;;;;;;;;;;4898211;29;20040;-62
2021/11/23 08:54:46;;;;;;;33.38;20.05;;;;;;;;;;4897608;29;20016;-62
2021/11/23 08:57:12;;;;;;;25.42;14.43;;;;;;;;;;4897480;29;20024;-65
2021/11/23 08:59:42;;;;;;;29.80;15.38;;;;;;;;;;4897821;29;20023;-62
2021/11/23 09:02:08;;;;;;;24.58;12.90;;;;;;;;;;4897490;29;20040;-61
2021/11/23 09:04:34;;;;;;;23.95;14.88;;;;;;;;;;4897440;29;20033;-66
2021/11/23 09:07:03;;;;;;;30.83;14.00;;;;;;;;;;4897216;29;20057;-62
2021/11/23 09:09:31;;;;;;;26.05;13.27;;;;;;;;;;4895290;29;20492;-65
2021/11/23 09:12:01;;;;;;;21.63;12.60;;;;;;;;;;4897869;29;20020;-63
2021/11/23 09:14:27;;;;;;;24.70;13.70;;;;;;;;;;4897719;29;20112;-63
2021/11/23 09:16:53;;;;;;;24.77;14.02;;;;;;;;;;4897233;29;20360;-62
2021/11/23 09:19:19;;;;;;;23.35;13.45;;;;;;;;;;4897182;29;20115;-64
2021/11/23 09:21:45;;;;;;;31.30;15.25;;;;;;;;;;4879874;29;20047;-62
2021/11/23 09:24:11;;;;;;;27.20;14.13;;;;;;;;;;4897173;29;20029;-62
2021/11/23 09:26:37;;;;;;;22.77;12.40;;;;;;;;;;4897355;29;20132;-61
2021/11/23 09:29:03;;;;;;;19.98;12.40;;;;;;;;;;4897101;29;20036;-63
2021/11/23 09:31:29;;;;;;;20.35;12.75;;;;;;;;;;4894797;29;20033;-63
2021/11/23 09:33:56;;;;;;;18.98;12.00;;;;;;;;;;4896343;29;20024;-61
2021/11/23 09:36:22;;;;;;;21.85;12.80;;;;;;;;;;4879681;29;20393;-61
2021/11/23 09:38:48;;;;;;;19.55;11.50;;;;;;;;;;4896871;29;20021;-66
2021/11/23 09:41:14;;;;;;;78.15;44.03;;;;;;;;;;4896850;29;20040;-62
2021/11/23 09:43:41;;;;;;;56.00;31.63;;;;;;;;;;4897003;29;20075;-62
2021/11/23 09:46:08;;;;;;;43.30;23.95;;;;;;;;;;4896744;29;20092;-62
2021/11/23 09:48:34;;;;;;;19.90;12.20;;;;;;;;;;4897187;29;20112;-61
2021/11/23 09:51:01;;;;;;;47.90;26.23;;;;;;;;;;4881184;29;20056;-61
2021/11/23 09:53:27;;;;;;;23.52;12.48;;;;;;;;;;4897928;29;20124;-63
2021/11/23 09:55:54;;;;;;;18.80;11.63;;;;;;;;;;4897890;29;20096;-62
2021/11/23 09:58:21;;;;;;;20.60;12.35;;;;;;;;;;4897765;29;20334;-60
2021/11/23 10:00:49;;;;;;;24.60;13.80;;;;;;;;;;4898003;29;20027;-61
2021/11/23 10:03:27;;;;;;;22.38;12.43;;;;;;;;;;4880694;29;20048;-66
2021/11/23 10:06:03;;;;;;;19.88;10.30;;;;;;;;;;4897506;29;20032;-61
2021/11/23 10:08:29;;;;;;;24.67;13.40;;;;;;;;;;4897393;29;20025;-61
2021/11/23 10:10:55;;;;;;;25.73;12.93;;;;;;;;;;4897900;29;20067;-61
2021/11/23 10:13:22;;;;;;;20.42;12.60;;;;;;;;;;4897409;29;20120;-68
2021/11/23 10:15:49;;;;;;;20.58;12.57;;;;;;;;;;4897342;29;20033;-63
2021/11/23 10:18:17;;;;;;;21.75;11.73;;;;;;;;;;4897586;29;20056;-64
2021/11/23 10:20:45;;;;;;;20.73;11.90;;;;;;;;;;4897333;29;20060;-62
2021/11/23 10:23:19;;;;;;;23.17;14.07;;;;;;;;;;4897330;29;20496;-62
2021/11/23 10:25:47;;;;;;;19.23;11.70;;;;;;;;;;4897352;29;20029;-62
2021/11/23 10:28:14;;;;;;;23.23;12.98;;;;;;;;;;4897669;29;20124;-63
2021/11/23 10:30:41;;;;;;;22.65;13.07;;;;;;;;;;4897267;29;20358;-63
2021/11/23 10:33:08;;;;;;;20.20;11.90;;;;;;;;;;4897121;29;20029;-62
2021/11/23 10:35:37;;;;;;;22.80;12.60;;;;;;;;;;4880090;29;20039;-62
2021/11/23 10:38:04;;;;;;;31.50;14.60;;;;;;;;;;4897358;29;20036;-62
2021/11/23 10:40:32;;;;;;;19.85;11.55;;;;;;;;;;4879871;29;20393;-61
2021/11/23 10:43:00;;;;;;;27.20;14.00;;;;;;;;;;4897739;29;20172;-61
2021/11/23 10:45:26;;;;;;;19.75;11.20;;;;;;;;;;4896549;29;20381;-62
2021/11/23 10:47:53;;;;;;;18.75;11.30;;;;;;;;;;4896600;29;20059;-61
2021/11/23 10:50:20;;;;;;;17.13;9.90;;;;;;;;;;4896613;29;20024;-62
2021/11/23 10:52:48;;;;;;;19.60;11.02;;;;;;;;;;4896851;29;20032;-66
2021/11/23 10:55:17;;;;;;;16.48;10.20;;;;;;;;;;4897348;29;20089;-62
2021/11/23 10:57:44;;;;;;;17.20;11.15;;;;;;;;;;4897028;29;20465;-63
2021/11/23 11:00:12;;;;;;;17.42;9.40;;;;;;;;;;4897099;29;20106;-61
2021/11/23 11:02:39;;;;;;;13.40;8.85;;;;;;;;;;4879634;29;20527;-62
2021/11/23 11:05:06;;;;;;;16.20;9.52;;;;;;;;;;4896959;29;20096;-64
2021/11/23 11:07:33;;;;;;;16.65;9.48;;;;;;;;;;4896645;29;20029;-60
2021/11/23 11:10:00;;;;;;;19.17;10.68;;;;;;;;;;4895964;29;20115;-65
2021/11/23 11:12:26;;;;;;;16.95;9.82;;;;;;;;;;4896806;29;20473;-65
2021/11/23 11:14:53;;;;;;;15.10;9.18;;;;;;;;;;4896905;29;20043;-66
2021/11/23 11:17:23;;;;;;;17.17;10.38;;;;;;;;;;4896655;29;20429;-63
2021/11/23 11:19:50;;;;;;;15.60;9.05;;;;;;;;;;4896724;29;20031;-65
2021/11/23 11:22:19;;;;;;;16.08;8.35;;;;;;;;;;4895150;29;20055;-65
2021/11/23 11:25:06;;;;;;;13.95;7.85;;;;;;;;;;4895197;29;20080;-62
2021/11/23 11:27:32;;;;;;;19.00;10.55;;;;;;;;;;4895164;29;20477;-64
2021/11/23 11:30:17;;;;;;;20.05;11.43;;;;;;;;;;4894472;29;20108;-61
2021/11/23 11:32:44;;;;;;;16.60;9.13;;;;;;;;;;4893915;29;20033;-67
2021/11/23 11:35:26;;;;;;;13.75;7.63;;;;;;;;;;4894234;29;20053;-67
2021/11/23 11:37:56;;;;;;;13.32;8.18;;;;;;;;;;4893984;29;20056;-62
2021/11/23 11:40:32;;;;;;;14.32;8.45;;;;;;;;;;4893977;29;20519;-63
2021/11/23 11:43:01;;;;;;;15.20;9.85;;;;;;;;;;4894378;29;20032;-60
2021/11/23 11:45:38;;;;;;;13.43;8.43;;;;;;;;;;4877757;29;20052;-62
2021/11/23 11:48:22;;;;;;;17.33;8.98;;;;;;;;;;4895026;29;20044;-62
2021/11/23 11:50:58;;;;;;;13.20;8.57;;;;;;;;;;4896061;29;20108;-61
2021/11/23 11:53:24;;;;;;;15.30;8.63;;;;;;;;;;4895491;29;20033;-62
2021/11/23 11:55:51;;;;;;;17.58;9.25;;;;;;;;;;4895925;29;20489;-61
2021/11/23 11:58:56;;;;;;;14.93;8.60;;;;;;;;;;4896067;29;20032;-61
2021/11/23 12:01:36;;;;;;;13.52;8.20;;;;;;;;;;4800703;29;20043;-61
2021/11/23 12:04:09;;;;;;;13.23;7.68;;;;;;;;;;4798970;29;20557;-61
2021/11/23 12:06:56;;;;;;;11.60;7.80;;;;;;;;;;4799809;29;20062;-67
2021/11/23 12:09:31;;;;;;;15.88;9.05;;;;;;;;;;4797937;29;20150;-68
2021/11/23 12:12:21;;;;;;;15.93;8.27;;;;;;;;;;4797907;29;20523;-65
2021/11/23 12:14:53;;;;;;;13.88;8.35;;;;;;;;;;4793563;29;20130;-64
2021/11/23 12:17:25;;;;;;;;;;;;;;;;;;4798516;29;20127;-62
2021/11/23 12:20:07;;;;;;;13.68;8.32;;;;;;;;;;4797889;29;20573;-65
2021/11/23 12:22:40;;;;;;;10.25;6.68;;;;;;;;;;4798347;29;20054;-62
2021/11/23 12:25:08;;;;;;;14.23;8.73;;;;;;;;;;4797269;29;20047;-63
2021/11/23 12:27:35;;;;;;;12.45;8.43;;;;;;;;;;4799946;29;20038;-61
2021/11/23 12:30:01;;;;;;;16.83;11.88;;;;;;;;;;4799213;29;20038;-64
2021/11/23 12:32:32;;;;;;;18.38;8.13;;;;;;;;;;4798212;29;20491;-65
2021/11/23 12:34:58;;;;;;;14.10;8.07;;;;;;;;;;4832764;29;20455;-63
2021/11/23 12:37:35;;;;;;;12.32;7.68;;;;;;;;;;4893855;29;20488;-62
2021/11/23 12:40:12;;;;;;;13.65;9.00;;;;;;;;;;4894712;29;20028;-63
2021/11/23 12:42:51;;;;;;;13.30;8.07;;;;;;;;;;4892954;29;20045;-62
2021/11/23 12:45:18;;;;;;;15.98;8.85;;;;;;;;;;4895210;29;20084;-65
2021/11/23 12:47:48;;;;;;;13.93;8.43;;;;;;;;;;4890496;29;20037;-64
2021/11/23 12:50:14;;;;;;;20.83;10.07;;;;;;;;;;4890809;29;20029;-64
2021/11/23 12:52:40;;;;;;;15.02;8.73;;;;;;;;;;4893403;29;20120;-65
2021/11/23 12:55:06;;;;;;;26.90;12.05;;;;;;;;;;4892838;29;20036;-61
2021/11/23 12:57:32;;;;;;;37.50;17.90;;;;;;;;;;4895316;29;20088;-64
2021/11/23 13:00:01;;;;;;;15.45;8.15;;;;;;;;;;4895163;29;20492;-65
2021/11/23 13:02:29;;;;;;;15.82;9.93;;;;;;;;;;4893837;29;20040;-62
2021/11/23 13:05:04;;;;;;;16.45;10.25;;;;;;;;;;4895029;29;20060;-63
2021/11/23 13:07:30;;;;;;;32.17;14.25;;;;;;;;;;4895063;29;20029;-63
2021/11/23 13:10:07;;;;;;;14.20;8.73;;;;;;;;;;4896787;29;20077;-63
2021/11/23 13:12:54;;;;;;;17.15;8.88;;;;;;;;;;4897552;29;20041;-62
2021/11/23 13:15:22;;;;;;;16.30;9.48;;;;;;;;;;4892601;29;20043;-62
2021/11/23 13:17:55;;;;;;;21.90;10.93;;;;;;;;;;4896314;29;20127;-62
2021/11/23 13:20:32;;;;;;;19.00;10.45;;;;;;;;;;4898350;29;20056;-63
2021/11/23 13:22:59;;;;;;;15.00;8.93;;;;;;;;;;4898298;29;20539;-63
2021/11/23 13:25:27;;;;;;;22.45;10.65;;;;;;;;;;4896193;29;20097;-63
2021/11/23 13:27:54;;;;;;;20.23;9.85;;;;;;;;;;4896315;29;20056;-62
2021/11/23 13:30:40;;;;;;;15.50;9.48;;;;;;;;;;4898144;29;20036;-64
2021/11/23 13:33:11;;;;;;;16.33;9.55;;;;;;;;;;4897417;29;20028;-64
2021/11/23 13:35:49;;;;;;;15.50;8.67;;;;;;;;;;4893894;29;20139;-62
2021/11/23 13:38:35;;;;;;;16.13;8.57;;;;;;;;;;4868768;29;20378;-62
2021/11/23 13:41:08;;;;;;;17.95;10.13;;;;;;;;;;4869413;29;20052;-64
2021/11/23 13:43:45;;;;;;;14.63;9.05;;;;;;;;;;4879278;29;20047;-64
2021/11/23 13:46:12;;;;;;;17.15;8.55;;;;;;;;;;4879487;29;20393;-64
2021/11/23 13:48:38;;;;;;;12.80;7.60;;;;;;;;;;4878920;29;20060;-62
2021/11/23 13:51:06;;;;;;;19.23;10.23;;;;;;;;;;4879291;29;20056;-62
2021/11/23 13:53:51;;;;;;;17.20;9.93;;;;;;;;;;4879274;29;20025;-64
2021/11/23 13:56:17;;;;;;;13.35;8.82;;;;;;;;;;4879406;29;20043;-64
2021/11/23 13:58:47;;;;;;;13.63;7.88;;;;;;;;;;4879121;29;20039;-63
2021/11/23 14:01:13;;;;;;;15.27;8.50;;;;;;;;;;4878312;29;20501;-64
2021/11/23 14:03:39;;;;;;;13.82;8.70;;;;;;;;;;4878878;29;20040;-64
2021/11/23 14:06:05;;;;;;;13.27;7.47;;;;;;;;;;4878868;29;20029;-64
2021/11/23 14:08:34;;;;;;;15.63;9.13;;;;;;;;;;4878805;29;20029;-62
2021/11/23 14:11:05;;;;;;;14.80;8.63;;;;;;;;;;4878914;29;20025;-63
2021/11/23 14:13:33;;;;;;;15.90;9.43;;;;;;;;;;4878657;29;20347;-64
2021/11/23 14:16:17;;;;;;;15.32;9.00;;;;;;;;;;4878858;29;20093;-64
2021/11/23 14:18:43;;;;;;;15.50;8.00;;;;;;;;;;4878893;29;20057;-63
2021/11/23 14:21:12;;;;;;;14.18;8.80;;;;;;;;;;4877827;29;20040;-63
2021/11/23 14:23:43;;;;;;;15.93;8.82;;;;;;;;;;4878182;29;20063;-63
2021/11/23 14:26:17;;;;;;;13.95;8.25;;;;;;;;;;4878765;29;20025;-64
2021/11/23 14:28:45;;;;;;;17.63;9.57;;;;;;;;;;4878670;29;20073;-64
2021/11/23 14:31:13;;;;;;;14.40;8.68;;;;;;;;;;4878677;29;20028;-63
2021/11/23 14:33:39;;;;;;;14.80;8.65;;;;;;;;;;4878374;29;20037;-62
2021/11/23 14:36:06;;;;;;;18.08;9.60;;;;;;;;;;4878042;29;20033;-63
2021/11/23 14:38:33;;;;;;;19.92;9.68;;;;;;;;;;4878645;29;20029;-63
2021/11/23 14:41:00;;;;;;;18.35;9.93;;;;;;;;;;4878418;29;20033;-63
2021/11/23 14:43:26;;;;;;;16.08;9.70;;;;;;;;;;4878187;29;20505;-63
2021/11/23 14:45:52;;;;;;;18.98;10.07;;;;;;;;;;4861203;29;20080;-63
2021/11/23 14:48:19;;;;;;;19.63;10.40;;;;;;;;;;4877889;29;20056;-63
2021/11/23 14:50:45;;;;;;;15.85;10.23;;;;;;;;;;4878154;29;20089;-63
2021/11/23 14:53:11;;;;;;;16.48;10.57;;;;;;;;;;4878292;29;20036;-63
2021/11/23 14:55:40;;;;;;;18.95;10.95;;;;;;;;;;4878194;29;20389;-62
2021/11/23 14:58:06;;;;;;;21.35;10.88;;;;;;;;;;4877930;29;20044;-61
2021/11/23 15:00:32;;;;;;;17.90;10.95;;;;;;;;;;4878106;29;20033;-62
2021/11/23 15:02:58;;;;;;;26.05;12.45;;;;;;;;;;4878145;29;20044;-62
2021/11/23 15:05:25;;;;;;;20.92;12.07;;;;;;;;;;4877858;29;20056;-61
2021/11/23 15:07:51;;;;;;;15.35;9.30;;;;;;;;;;4878142;29;20089;-62
2021/11/23 15:10:17;;;;;;;19.75;11.60;;;;;;;;;;4878099;29;20029;-64
2021/11/23 15:12:44;;;;;;;21.55;11.65;;;;;;;;;;4878069;29;20033;-64
2021/11/23 15:15:12;;;;;;;26.83;13.15;;;;;;;;;;4877912;29;20025;-66
2021/11/23 15:17:44;;;;;;;21.52;11.25;;;;;;;;;;4877869;29;20059;-64
2021/11/23 15:20:10;;;;;;;29.17;16.35;;;;;;;;;;4878077;29;20021;-62
2021/11/23 15:22:36;;;;;;;25.52;13.38;;;;;;;;;;4877794;29;20041;-60
2021/11/23 15:25:02;;;;;;;26.48;15.02;;;;;;;;;;4877710;29;20108;-63
2021/11/23 15:27:28;;;;;;;25.75;13.95;;;;;;;;;;4877659;29;20084;-62
2021/11/23 15:29:55;;;;;;;23.13;12.55;;;;;;;;;;4877565;29;20025;-65
2021/11/23 15:32:21;;;;;;;21.65;11.60;;;;;;;;;;4876195;29;20025;-61
2021/11/23 15:34:47;;;;;;;22.20;13.75;;;;;;;;;;4877576;29;20040;-59
2021/11/23 15:37:13;;;;;;;22.73;12.60;;;;;;;;;;4877295;29;20085;-62
2021/11/23 15:39:39;;;;;;;22.40;13.25;;;;;;;;;;4877515;29;20109;-61
2021/11/23 15:42:06;;;;;;;27.38;14.35;;;;;;;;;;4877447;29;20111;-66
2021/11/23 15:44:32;;;;;;;31.73;16.48;;;;;;;;;;4877497;29;20032;-61
2021/11/23 15:46:58;;;;;;;28.02;15.40;;;;;;;;;;4876813;29;20029;-63
2021/11/23 15:49:24;;;;;;;23.30;12.82;;;;;;;;;;4876396;29;20052;-63
2021/11/23 15:51:52;;;;;;;22.77;14.10;;;;;;;;;;4876732;29;20033;-64
2021/11/23 15:54:18;;;;;;;30.42;16.90;;;;;;;;;;4877185;29;20029;-68
2021/11/23 15:56:45;;;;;;;24.05;12.90;;;;;;;;;;4876883;29;20025;-63
2021/11/23 15:59:11;;;;;;;24.98;13.60;;;;;;;;;;4877314;29;20025;-64
2021/11/23 16:01:37;;;;;;;23.55;13.52;;;;;;;;;;4877091;29;20033;-61
2021/11/23 16:04:03;;;;;;;28.38;16.52;;;;;;;;;;4877559;29;20165;-65
2021/11/23 16:06:30;;;;;;;26.33;12.80;;;;;;;;;;4876874;29;20031;-64
2021/11/23 16:08:56;;;;;;;19.05;10.90;;;;;;;;;;4877235;29;20025;-62
2021/11/23 16:11:22;;;;;;;25.85;13.48;;;;;;;;;;4876986;29;20033;-64
2021/11/23 16:13:48;;;;;;;18.48;11.23;;;;;;;;;;4877290;29;20037;-66
2021/11/23 16:16:14;;;;;;;23.92;12.88;;;;;;;;;;4877022;29;20037;-62
2021/11/23 16:18:41;;;;;;;21.67;12.30;;;;;;;;;;4876753;29;20025;-61
2021/11/23 16:21:07;;;;;;;27.80;14.45;;;;;;;;;;4876747;29;20029;-62
2021/11/23 16:23:34;;;;;;;24.45;12.65;;;;;;;;;;4876968;29;20056;-62
2021/11/23 16:26:00;;;;;;;27.13;12.88;;;;;;;;;;4876948;29;20033;-62
2021/11/23 16:28:27;;;;;;;22.25;11.75;;;;;;;;;;4877009;29;20037;-62
2021/11/23 16:30:53;;;;;;;25.23;12.38;;;;;;;;;;4877420;29;20029;-65
2021/11/23 16:33:20;;;;;;;19.80;10.60;;;;;;;;;;4877011;29;20610;-67
2021/11/23 16:35:48;;;;;;;21.52;12.07;;;;;;;;;;4877212;29;20029;-63
2021/11/23 16:38:14;;;;;;;22.88;12.93;;;;;;;;;;4876901;29;20544;-68
2021/11/23 16:40:41;;;;;;;20.50;11.65;;;;;;;;;;4876774;29;20390;-63
2021/11/23 16:43:07;;;;;;;22.10;11.38;;;;;;;;;;4876842;29;20033;-62
2021/11/23 16:45:33;;;;;;;21.10;10.82;;;;;;;;;;4880549;29;20093;-64
2021/11/23 16:47:59;;;;;;;22.38;12.40;;;;;;;;;;4880401;29;20084;-62
2021/11/23 16:50:26;;;;;;;20.10;12.00;;;;;;;;;;4880280;29;20053;-64
2021/11/23 16:52:52;;;;;;;22.33;12.40;;;;;;;;;;4880614;29;20049;-66
2021/11/23 16:55:18;;;;;;;21.88;12.50;;;;;;;;;;4880726;29;20064;-62
2021/11/23 16:57:44;;;;;;;22.75;11.90;;;;;;;;;;4880096;29;20092;-65
2021/11/23 17:00:13;;;;;;;19.38;10.95;;;;;;;;;;4880516;29;20040;-62
2021/11/23 17:02:43;;;;;;;24.50;11.93;;;;;;;;;;4880091;29;20052;-63
2021/11/23 17:05:09;;;;;;;21.27;12.23;;;;;;;;;;4879658;29;20036;-66
2021/11/23 17:07:36;;;;;;;19.33;11.32;;;;;;;;;;4880205;29;20084;-68
2021/11/23 17:10:03;;;;;;;22.30;13.38;;;;;;;;;;4880311;29;20390;-63
2021/11/23 17:12:29;;;;;;;23.75;12.80;;;;;;;;;;4879697;29;20040;-69
2021/11/23 17:14:55;;;;;;;23.67;12.93;;;;;;;;;;4879870;29;20029;-63
2021/11/23 17:17:21;;;;;;;23.90;12.30;;;;;;;;;;4880031;29;20033;-64
2021/11/23 17:19:47;;;;;;;24.63;12.50;;;;;;;;;;4879652;29;20025;-63
2021/11/23 17:22:13;;;;;;;23.67;12.80;;;;;;;;;;4879151;29;20045;-63
2021/11/23 17:24:40;;;;;;;20.25;12.18;;;;;;;;;;4879977;29;20064;-61
2021/11/23 17:27:08;;;;;;;21.85;12.20;;;;;;;;;;4879436;29;20066;-61
2021/11/23 17:29:34;;;;;;;20.98;12.35;;;;;;;;;;4879840;29;20098;-61
2021/11/23 17:32:01;;;;;;;24.10;12.55;;;;;;;;;;4879649;29;20025;-68
2021/11/23 17:34:28;;;;;;;21.63;12.05;;;;;;;;;;4879122;29;20478;-64
2021/11/23 17:36:56;;;;;;;22.65;12.60;;;;;;;;;;4879619;29;20029;-63
2021/11/23 17:39:23;;;;;;;23.38;12.68;;;;;;;;;;4862490;29;20044;-63
2021/11/23 17:41:49;;;;;;;27.42;13.80;;;;;;;;;;4879330;29;20036;-63
2021/11/23 17:44:15;;;;;;;23.20;12.60;;;;;;;;;;4879360;29;20676;-62
2021/11/23 17:46:41;;;;;;;25.52;14.02;;;;;;;;;;4879428;29;20035;-63
2021/11/23 17:49:07;;;;;;;24.88;13.50;;;;;;;;;;4879027;29;20136;-63
2021/11/23 17:51:33;;;;;;;22.83;12.70;;;;;;;;;;4878007;29;20033;-64
2021/11/23 17:54:02;;;;;;;20.75;12.43;;;;;;;;;;4878891;29;20041;-65
2021/11/23 17:56:28;;;;;;;21.60;12.63;;;;;;;;;;4877465;29;20017;-65
2021/11/23 17:58:56;;;;;;;24.75;12.75;;;;;;;;;;4879181;29;20164;-67
2021/11/23 18:01:22;;;;;;;21.38;13.00;;;;;;;;;;4879281;29;20029;-63
2021/11/23 18:03:48;;;;;;;29.25;13.27;;;;;;;;;;4879582;29;20451;-66
2021/11/23 18:06:15;;;;;;;22.15;13.02;;;;;;;;;;4879358;29;20032;-61
2021/11/23 18:08:41;;;;;;;29.33;13.95;;;;;;;;;;4879363;29;20116;-66
2021/11/23 18:11:08;;;;;;;29.30;14.95;;;;;;;;;;4878881;29;20033;-65
2021/11/23 18:13:34;;;;;;;26.58;15.38;;;;;;;;;;4879206;29;20025;-63
2021/11/23 18:16:00;;;;;;;33.22;16.25;;;;;;;;;;4879170;29;20068;-65
2021/11/23 18:18:26;;;;;;;33.47;17.70;;;;;;;;;;4878937;29;20060;-62
2021/11/23 18:20:54;;;;;;;33.33;18.38;;;;;;;;;;4878887;29;20040;-63
2021/11/23 18:23:22;;;;;;;42.42;21.75;;;;;;;;;;4886458;29;20037;-59
2021/11/23 18:25:49;;;;;;;40.25;22.60;;;;;;;;;;4895992;29;20511;-62
2021/11/23 18:28:15;;;;;;;44.10;22.90;;;;;;;;;;4896332;29;20087;-63
2021/11/23 18:30:44;;;;;;;46.35;25.27;;;;;;;;;;4896356;29;20024;-62
2021/11/23 18:33:10;;;;;;;33.85;18.65;;;;;;;;;;4896589;29;20024;-60
2021/11/23 18:35:36;;;;;;;37.45;20.15;;;;;;;;;;4896133;29;20076;-62
2021/11/23 18:38:04;;;;;;;38.83;21.10;;;;;;;;;;4895423;29;20032;-62
2021/11/23 18:40:31;;;;;;;30.90;17.15;;;;;;;;;;4894926;29;20024;-61
2021/11/23 18:42:58;;;;;;;34.10;17.92;;;;;;;;;;4895916;29;20037;-66
2021/11/23 18:45:24;;;;;;;36.25;18.55;;;;;;;;;;4896064;29;20029;-61
2021/11/23 18:47:51;;;;;;;32.63;18.27;;;;;;;;;;4895589;29;20097;-61
2021/11/23 18:50:18;;;;;;;36.70;17.98;;;;;;;;;;4895738;29;20032;-61
2021/11/23 18:52:46;;;;;;;33.13;18.77;;;;;;;;;;4893136;29;20401;-61
2021/11/23 18:55:13;;;;;;;34.08;19.17;;;;;;;;;;4895997;29;20021;-62
2021/11/23 18:57:40;;;;;;;36.30;19.65;;;;;;;;;;4895649;29;20056;-61
2021/11/23 19:00:08;;;;;;;34.22;19.52;;;;;;;;;;4903208;29;20028;-61
2021/11/23 19:02:34;;;;;;;36.30;18.70;;;;;;;;;;4913460;29;20036;-62
2021/11/23 19:05:00;;;;;;;34.42;18.67;;;;;;;;;;4914142;29;20491;-63
2021/11/23 19:07:27;;;;;;;33.10;18.70;;;;;;;;;;4910486;29;20032;-60
2021/11/23 19:09:54;;;;;;;36.55;19.40;;;;;;;;;;4906455;29;20029;-63
2021/11/23 19:12:20;;;;;;;34.10;19.40;;;;;;;;;;4910015;29;20044;-62
2021/11/23 19:14:46;;;;;;;47.63;27.23;;;;;;;;;;4902651;29;20032;-62
2021/11/23 19:17:13;;;;;;;36.90;21.90;;;;;;;;;;4899439;29;20076;-61
2021/11/23 19:19:39;;;;;;;36.40;19.38;;;;;;;;;;4896192;29;20051;-64
2021/11/23 19:22:05;;;;;;;34.13;19.33;;;;;;;;;;4895363;29;20048;-61
2021/11/23 19:24:31;;;;;;;33.67;19.50;;;;;;;;;;4895472;29;20037;-70
2021/11/23 19:26:57;;;;;;;35.00;19.42;;;;;;;;;;4894902;29;20035;-64
2021/11/23 19:29:23;;;;;;;34.78;19.15;;;;;;;;;;4894019;29;20495;-61
2021/11/23 19:31:49;;;;;;;33.97;18.05;;;;;;;;;;4894711;29;20032;-65
2021/11/23 19:34:15;;;;;;;33.58;19.38;;;;;;;;;;4895699;29;20035;-64
2021/11/23 19:36:41;;;;;;;34.03;18.98;;;;;;;;;;4894245;29;20500;-71
2021/11/23 19:39:09;;;;;;;33.70;18.83;;;;;;;;;;4895029;29;20033;-66
2021/11/23 19:41:36;;;;;;;37.60;19.75;;;;;;;;;;4892878;29;20060;-67
2021/11/23 19:44:02;;;;;;;36.30;19.08;;;;;;;;;;4894204;29;20035;-61
2021/11/23 19:46:28;;;;;;;33.53;18.73;;;;;;;;;;4894423;29;20024;-67
2021/11/23 19:48:58;;;;;;;35.97;20.17;;;;;;;;;;4891879;29;20568;-61
2021/11/23 19:51:25;;;;;;;35.33;19.67;;;;;;;;;;4903196;29;20063;-64
2021/11/23 19:53:52;;;;;;;36.40;19.95;;;;;;;;;;4903590;29;20552;-63
2021/11/23 19:56:20;;;;;;;39.35;19.38;;;;;;;;;;4903385;29;20075;-62
2021/11/23 19:58:46;;;;;;;37.83;19.55;;;;;;;;;;4904257;29;20025;-66
2021/11/23 20:01:13;;;;;;;34.00;19.67;;;;;;;;;;4885597;29;20028;-63
2021/11/23 20:03:39;;;;;;;40.85;20.73;;;;;;;;;;4903037;29;20509;-64
2021/11/23 20:06:09;;;;;;;42.78;21.33;;;;;;;;;;4888247;29;20476;-63
2021/11/23 20:08:36;;;;;;;42.88;23.38;;;;;;;;;;4903551;29;20539;-64
2021/11/23 20:11:07;;;;;;;42.92;21.35;;;;;;;;;;4903905;29;20032;-66
2021/11/23 20:13:33;;;;;;;39.20;22.55;;;;;;;;;;4905530;29;20051;-63